sensor_id;sensor_type;location;lat;lon;timestamp;temperature;humidity
2389;DHT22;1205;47.984;7.668;2022-12-04T00:00:37;4.10;99.90
2389;DHT22;1205;47.984;7.668;2022-12-04T00:03:03;4.10;99.90
2389;DHT22;1205;47.984;7.668;2022-12-04T00:05:28;4.10;99.90
2389;DHT22;1205;47.984;7.668;2022-12-04T00:07:54;4.20;99.90
2389;DHT22;1205;47.984;7.668;2022-12-04T00:10:19;4.30;99.90
2389;DHT22;1205;47.984;7.668;2022-12-04T00:12:45;4.30;99.90
2389;DHT22;1205;47.984;7.668;2022-12-04T00:15:10;4.30;99.90
2389;DHT22;1205;47.984;7.668;2022-12-04T00:17:36;4.10;99.90
2389;DHT22;1205;47.984;7.668;2022-12-04T00:20:03;4.20;99.90
2389;DHT22;1205;47.984;7.668;2022-12-04T00:22:28;4.10;99.90
2389;DHT22;1205;47.984;7.668;2022-12-04T00:24:54;4.00;99.90
2389;DHT22;1205;47.984;7.668;2022-12-04T00:27:19;4.00;99.90
2389;DHT22;1205;47.984;7.668;2022-12-04T00:29:45;3.90;99.90
2389;DHT22;1205;47.984;7.668;2022-12-04T00:32:10;4.00;99.90
2389;DHT22;1205;47.984;7.668;2022-12-04T00:34:36;4.10;99.90
2389;DHT22;1205;47.984;7.668;2022-12-04T00:37:01;4.00;99.90
2389;DHT22;1205;47.984;7.668;2022-12-04T00:39:27;4.10;99.90
2389;DHT22;1205;47.984;7.668;2022-12-04T00:41:52;4.20;99.90
2389;DHT22;1205;47.984;7.668;2022-12-04T00:44:18;4.10;99.90
2389;DHT22;1205;47.984;7.668;2022-12-04T00:46:44;4.10;99.90
2389;DHT22;1205;47.984;7.668;2022-12-04T00:49:09;4.00;99.90
2389;DHT22;1205;47.984;7.668;2022-12-04T00:51:35;4.00;99.90
2389;DHT22;1205;47.984;7.668;2022-12-04T00:54:00;4.00;99.90
2389;DHT22;1205;47.984;7.668;2022-12-04T00:56:27;4.00;99.90
2389;DHT22;1205;47.984;7.668;2022-12-04T00:58:55;4.00;99.90
2389;DHT22;1205;47.984;7.668;2022-12-04T01:01:22;3.90;99.90
2389;DHT22;1205;47.984;7.668;2022-12-04T01:03:48;4.00;99.90
2389;DHT22;1205;47.984;7.668;2022-12-04T01:06:28;4.00;99.90
2389;DHT22;1205;47.984;7.668;2022-12-04T01:08:55;3.90;99.90
2389;DHT22;1205;47.984;7.668;2022-12-04T01:11:22;3.90;99.90
2389;DHT22;1205;47.984;7.668;2022-12-04T01:13:48;3.90;99.90
2389;DHT22;1205;47.984;7.668;2022-12-04T01:16:29;3.90;99.90
2389;DHT22;1205;47.984;7.668;2022-12-04T01:18:55;3.90;99.90
2389;DHT22;1205;47.984;7.668;2022-12-04T01:21:21;3.80;99.90
2389;DHT22;1205;47.984;7.668;2022-12-04T01:23:47;3.90;99.90
2389;DHT22;1205;47.984;7.668;2022-12-04T01:26:13;3.90;99.90
2389;DHT22;1205;47.984;7.668;2022-12-04T01:28:39;3.80;99.90
2389;DHT22;1205;47.984;7.668;2022-12-04T01:31:10;3.80;99.90
2389;DHT22;1205;47.984;7.668;2022-12-04T01:33:38;3.80;99.90
2389;DHT22;1205;47.984;7.668;2022-12-04T01:36:06;3.90;99.90
2389;DHT22;1205;47.984;7.668;2022-12-04T01:38:33;3.70;99.90
2389;DHT22;1205;47.984;7.668;2022-12-04T01:40:59;3.80;99.90
2389;DHT22;1205;47.984;7.668;2022-12-04T01:43:25;3.70;99.90
2389;DHT22;1205;47.984;7.668;2022-12-04T01:45:53;3.70;99.90
2389;DHT22;1205;47.984;7.668;2022-12-04T01:50:54;3.70;99.90
2389;DHT22;1205;47.984;7.668;2022-12-04T01:53:21;3.60;99.90
2389;DHT22;1205;47.984;7.668;2022-12-04T01:55:47;3.60;99.90
2389;DHT22;1205;47.984;7.668;2022-12-04T01:58:14;3.60;99.90
2389;DHT22;1205;47.984;7.668;2022-12-04T02:00:41;3.60;99.90
2389;DHT22;1205;47.984;7.668;2022-12-04T02:03:07;3.60;99.90
2389;DHT22;1205;47.984;7.668;2022-12-04T02:05:32;3.60;99.90
2389;DHT22;1205;47.984;7.668;2022-12-04T02:08:00;3.70;99.90
2389;DHT22;1205;47.984;7.668;2022-12-04T02:10:38;3.60;99.90
2389;DHT22;1205;47.984;7.668;2022-12-04T02:18:29;3.70;99.90
2389;DHT22;1205;47.984;7.668;2022-12-04T02:31:54;3.70;99.90
2389;DHT22;1205;47.984;7.668;2022-12-04T02:34:28;3.70;99.90
2389;DHT22;1205;47.984;7.668;2022-12-04T02:37:06;3.60;99.90
2389;DHT22;1205;47.984;7.668;2022-12-04T02:42:10;3.60;99.90
2389;DHT22;1205;47.984;7.668;2022-12-04T02:44:51;3.70;99.90
2389;DHT22;1205;47.984;7.668;2022-12-04T02:47:21;3.70;99.90
2389;DHT22;1205;47.984;7.668;2022-12-04T02:49:58;3.80;99.90
2389;DHT22;1205;47.984;7.668;2022-12-04T02:52:30;3.80;99.90
2389;DHT22;1205;47.984;7.668;2022-12-04T02:55:02;3.90;99.90
2389;DHT22;1205;47.984;7.668;2022-12-04T02:57:34;3.80;99.90
2389;DHT22;1205;47.984;7.668;2022-12-04T03:00:02;3.90;99.90
2389;DHT22;1205;47.984;7.668;2022-12-04T03:02:47;3.90;99.90
2389;DHT22;1205;47.984;7.668;2022-12-04T03:05:19;3.90;99.90
2389;DHT22;1205;47.984;7.668;2022-12-04T03:07:50;3.80;99.90
2389;DHT22;1205;47.984;7.668;2022-12-04T03:10:22;3.90;99.90
2389;DHT22;1205;47.984;7.668;2022-12-04T03:13:18;3.80;99.90
2389;DHT22;1205;47.984;7.668;2022-12-04T03:15:47;3.80;99.90
2389;DHT22;1205;47.984;7.668;2022-12-04T03:18:18;3.80;99.90
2389;DHT22;1205;47.984;7.668;2022-12-04T03:20:49;3.80;99.90
2389;DHT22;1205;47.984;7.668;2022-12-04T03:23:25;3.80;99.90
2389;DHT22;1205;47.984;7.668;2022-12-04T03:26:06;3.70;99.90
2389;DHT22;1205;47.984;7.668;2022-12-04T03:31:12;3.60;99.90
2389;DHT22;1205;47.984;7.668;2022-12-04T03:33:45;3.60;99.90
2389;DHT22;1205;47.984;7.668;2022-12-04T03:36:24;3.70;99.90
2389;DHT22;1205;47.984;7.668;2022-12-04T03:41:32;3.70;99.90
2389;DHT22;1205;47.984;7.668;2022-12-04T03:44:14;3.70;99.90
2389;DHT22;1205;47.984;7.668;2022-12-04T03:46:59;3.70;99.90
2389;DHT22;1205;47.984;7.668;2022-12-04T03:49:42;3.70;99.90
2389;DHT22;1205;47.984;7.668;2022-12-04T03:52:26;3.70;99.90
2389;DHT22;1205;47.984;7.668;2022-12-04T03:55:00;3.70;99.90
2389;DHT22;1205;47.984;7.668;2022-12-04T03:57:32;3.70;99.90
2389;DHT22;1205;47.984;7.668;2022-12-04T04:00:10;3.80;99.90
2389;DHT22;1205;47.984;7.668;2022-12-04T04:02:40;3.90;99.90
2389;DHT22;1205;47.984;7.668;2022-12-04T04:05:09;3.80;99.90
2389;DHT22;1205;47.984;7.668;2022-12-04T04:07:50;3.90;99.90
2389;DHT22;1205;47.984;7.668;2022-12-04T04:10:19;3.90;99.90
2389;DHT22;1205;47.984;7.668;2022-12-04T04:12:58;3.80;99.90
2389;DHT22;1205;47.984;7.668;2022-12-04T04:15:49;3.80;99.90
2389;DHT22;1205;47.984;7.668;2022-12-04T04:18:37;3.70;99.90
2389;DHT22;1205;47.984;7.668;2022-12-04T04:21:24;3.60;99.90
2389;DHT22;1205;47.984;7.668;2022-12-04T04:24:28;3.70;99.90
2389;DHT22;1205;47.984;7.668;2022-12-04T04:26:57;3.70;99.90
2389;DHT22;1205;47.984;7.668;2022-12-04T04:29:23;3.70;99.90
2389;DHT22;1205;47.984;7.668;2022-12-04T04:39:37;3.70;99.90
2389;DHT22;1205;47.984;7.668;2022-12-04T04:42:15;3.70;99.90
2389;DHT22;1205;47.984;7.668;2022-12-04T04:44:56;3.80;99.90
2389;DHT22;1205;47.984;7.668;2022-12-04T04:47:54;3.80;99.90
2389;DHT22;1205;47.984;7.668;2022-12-04T04:50:21;3.90;99.90
2389;DHT22;1205;47.984;7.668;2022-12-04T04:52:52;3.90;99.90
2389;DHT22;1205;47.984;7.668;2022-12-04T04:55:20;3.90;99.90
2389;DHT22;1205;47.984;7.668;2022-12-04T04:57:47;4.00;99.90
2389;DHT22;1205;47.984;7.668;2022-12-04T05:00:19;3.90;99.90
2389;DHT22;1205;47.984;7.668;2022-12-04T05:02:45;4.00;99.90
2389;DHT22;1205;47.984;7.668;2022-12-04T05:05:13;3.90;99.90
2389;DHT22;1205;47.984;7.668;2022-12-04T05:07:38;3.90;99.90
2389;DHT22;1205;47.984;7.668;2022-12-04T05:10:05;3.90;99.90
2389;DHT22;1205;47.984;7.668;2022-12-04T05:12:31;3.90;99.90
2389;DHT22;1205;47.984;7.668;2022-12-04T05:14:56;3.90;99.90
2389;DHT22;1205;47.984;7.668;2022-12-04T05:17:22;3.90;99.90
2389;DHT22;1205;47.984;7.668;2022-12-04T05:19:47;3.90;99.90
2389;DHT22;1205;47.984;7.668;2022-12-04T05:22:26;3.90;99.90
2389;DHT22;1205;47.984;7.668;2022-12-04T05:24:52;3.90;99.90
2389;DHT22;1205;47.984;7.668;2022-12-04T05:27:18;3.90;99.90
2389;DHT22;1205;47.984;7.668;2022-12-04T05:29:44;3.90;99.90
2389;DHT22;1205;47.984;7.668;2022-12-04T05:32:09;3.90;99.90
2389;DHT22;1205;47.984;7.668;2022-12-04T05:34:35;3.90;99.90
2389;DHT22;1205;47.984;7.668;2022-12-04T05:37:00;3.90;99.90
2389;DHT22;1205;47.984;7.668;2022-12-04T05:39:26;4.00;99.90
2389;DHT22;1205;47.984;7.668;2022-12-04T05:41:52;3.90;99.90
2389;DHT22;1205;47.984;7.668;2022-12-04T05:44:17;3.90;99.90
2389;DHT22;1205;47.984;7.668;2022-12-04T05:46:43;4.80;99.90
2389;DHT22;1205;47.984;7.668;2022-12-04T05:49:08;4.40;99.90
2389;DHT22;1205;47.984;7.668;2022-12-04T05:51:34;4.30;99.90
2389;DHT22;1205;47.984;7.668;2022-12-04T05:53:59;4.20;99.90
2389;DHT22;1205;47.984;7.668;2022-12-04T05:56:25;4.10;99.90
2389;DHT22;1205;47.984;7.668;2022-12-04T05:58:50;4.10;99.90
2389;DHT22;1205;47.984;7.668;2022-12-04T06:01:18;4.00;99.90
2389;DHT22;1205;47.984;7.668;2022-12-04T06:03:44;4.00;99.90
2389;DHT22;1205;47.984;7.668;2022-12-04T06:06:15;3.90;99.90
2389;DHT22;1205;47.984;7.668;2022-12-04T06:08:41;4.00;99.90
2389;DHT22;1205;47.984;7.668;2022-12-04T06:11:15;4.00;99.90
2389;DHT22;1205;47.984;7.668;2022-12-04T06:13:41;4.00;99.90
2389;DHT22;1205;47.984;7.668;2022-12-04T06:16:21;3.90;99.90
2389;DHT22;1205;47.984;7.668;2022-12-04T06:18:49;4.00;99.90
2389;DHT22;1205;47.984;7.668;2022-12-04T06:21:16;3.90;99.90
2389;DHT22;1205;47.984;7.668;2022-12-04T06:23:42;3.90;99.90
2389;DHT22;1205;47.984;7.668;2022-12-04T06:26:07;3.80;99.90
2389;DHT22;1205;47.984;7.668;2022-12-04T06:28:34;3.80;99.90
2389;DHT22;1205;47.984;7.668;2022-12-04T06:31:06;3.80;99.90
2389;DHT22;1205;47.984;7.668;2022-12-04T06:33:32;3.90;99.90
2389;DHT22;1205;47.984;7.668;2022-12-04T06:36:00;4.00;99.90
2389;DHT22;1205;47.984;7.668;2022-12-04T06:38:26;4.00;99.90
2389;DHT22;1205;47.984;7.668;2022-12-04T06:40:52;4.00;99.90
2389;DHT22;1205;47.984;7.668;2022-12-04T06:43:17;4.00;99.90
2389;DHT22;1205;47.984;7.668;2022-12-04T06:45:43;4.00;99.90
2389;DHT22;1205;47.984;7.668;2022-12-04T06:48:08;4.00;99.90
2389;DHT22;1205;47.984;7.668;2022-12-04T06:50:34;4.10;99.90
2389;DHT22;1205;47.984;7.668;2022-12-04T06:52:59;4.00;99.90
2389;DHT22;1205;47.984;7.668;2022-12-04T06:55:25;3.90;99.90
2389;DHT22;1205;47.984;7.668;2022-12-04T06:57:51;3.90;99.90
2389;DHT22;1205;47.984;7.668;2022-12-04T07:00:16;3.90;99.90
2389;DHT22;1205;47.984;7.668;2022-12-04T07:02:42;3.80;99.90
2389;DHT22;1205;47.984;7.668;2022-12-04T07:05:08;3.80;99.90
2389;DHT22;1205;47.984;7.668;2022-12-04T07:07:33;3.90;99.90
2389;DHT22;1205;47.984;7.668;2022-12-04T07:09:59;3.90;99.90
2389;DHT22;1205;47.984;7.668;2022-12-04T07:12:24;3.90;99.90
2389;DHT22;1205;47.984;7.668;2022-12-04T07:14:50;3.80;99.90
2389;DHT22;1205;47.984;7.668;2022-12-04T07:17:16;3.80;99.90
2389;DHT22;1205;47.984;7.668;2022-12-04T07:19:41;3.90;99.90
2389;DHT22;1205;47.984;7.668;2022-12-04T07:22:07;4.00;99.90
2389;DHT22;1205;47.984;7.668;2022-12-04T07:24:34;3.90;99.90
2389;DHT22;1205;47.984;7.668;2022-12-04T07:26:59;3.90;99.90
2389;DHT22;1205;47.984;7.668;2022-12-04T07:29:25;3.90;99.90
2389;DHT22;1205;47.984;7.668;2022-12-04T07:31:50;3.90;99.90
2389;DHT22;1205;47.984;7.668;2022-12-04T07:34:16;3.80;99.90
2389;DHT22;1205;47.984;7.668;2022-12-04T07:36:41;3.90;99.90
2389;DHT22;1205;47.984;7.668;2022-12-04T07:39:07;3.80;99.90
2389;DHT22;1205;47.984;7.668;2022-12-04T07:41:33;3.80;99.90
2389;DHT22;1205;47.984;7.668;2022-12-04T07:43:59;3.90;99.90
2389;DHT22;1205;47.984;7.668;2022-12-04T07:46:26;3.90;99.90
2389;DHT22;1205;47.984;7.668;2022-12-04T07:48:54;4.00;99.90
2389;DHT22;1205;47.984;7.668;2022-12-04T07:51:22;3.90;99.90
2389;DHT22;1205;47.984;7.668;2022-12-04T07:53:49;3.90;99.90
2389;DHT22;1205;47.984;7.668;2022-12-04T07:56:16;3.90;99.90
2389;DHT22;1205;47.984;7.668;2022-12-04T07:58:42;4.00;99.90
2389;DHT22;1205;47.984;7.668;2022-12-04T08:01:10;4.00;99.90
2389;DHT22;1205;47.984;7.668;2022-12-04T08:03:37;4.00;99.90
2389;DHT22;1205;47.984;7.668;2022-12-04T08:06:04;4.00;99.90
2389;DHT22;1205;47.984;7.668;2022-12-04T08:08:30;4.10;99.90
2389;DHT22;1205;47.984;7.668;2022-12-04T08:10:56;4.20;99.90
2389;DHT22;1205;47.984;7.668;2022-12-04T08:13:22;4.10;99.90
2389;DHT22;1205;47.984;7.668;2022-12-04T08:15:47;4.20;99.90
2389;DHT22;1205;47.984;7.668;2022-12-04T08:18:13;4.30;99.90
2389;DHT22;1205;47.984;7.668;2022-12-04T08:20:38;4.30;99.90
2389;DHT22;1205;47.984;7.668;2022-12-04T08:23:04;4.20;99.90
2389;DHT22;1205;47.984;7.668;2022-12-04T08:25:30;4.20;99.90
2389;DHT22;1205;47.984;7.668;2022-12-04T08:27:55;4.20;99.90
2389;DHT22;1205;47.984;7.668;2022-12-04T08:30:21;4.30;99.90
2389;DHT22;1205;47.984;7.668;2022-12-04T08:32:46;4.30;99.90
2389;DHT22;1205;47.984;7.668;2022-12-04T08:35:12;4.30;99.90
2389;DHT22;1205;47.984;7.668;2022-12-04T08:37:38;4.30;99.90
2389;DHT22;1205;47.984;7.668;2022-12-04T08:40:04;5.50;99.90
2389;DHT22;1205;47.984;7.668;2022-12-04T08:42:29;6.20;99.90
2389;DHT22;1205;47.984;7.668;2022-12-04T08:44:55;6.10;99.90
2389;DHT22;1205;47.984;7.668;2022-12-04T08:47:20;5.50;99.90
2389;DHT22;1205;47.984;7.668;2022-12-04T08:49:46;5.10;99.90
2389;DHT22;1205;47.984;7.668;2022-12-04T08:52:11;5.00;99.90
2389;DHT22;1205;47.984;7.668;2022-12-04T08:54:37;5.00;99.90
2389;DHT22;1205;47.984;7.668;2022-12-04T08:57:03;4.70;99.90
2389;DHT22;1205;47.984;7.668;2022-12-04T08:59:29;4.70;99.90
2389;DHT22;1205;47.984;7.668;2022-12-04T09:01:54;4.60;99.90
2389;DHT22;1205;47.984;7.668;2022-12-04T09:04:20;4.50;99.90
2389;DHT22;1205;47.984;7.668;2022-12-04T09:06:45;4.50;99.90
2389;DHT22;1205;47.984;7.668;2022-12-04T09:09:11;4.40;99.90
2389;DHT22;1205;47.984;7.668;2022-12-04T09:11:37;4.40;99.90
2389;DHT22;1205;47.984;7.668;2022-12-04T09:14:03;4.40;99.90
2389;DHT22;1205;47.984;7.668;2022-12-04T09:16:29;4.30;99.90
2389;DHT22;1205;47.984;7.668;2022-12-04T09:18:55;4.20;99.90
2389;DHT22;1205;47.984;7.668;2022-12-04T09:21:23;4.30;99.90
2389;DHT22;1205;47.984;7.668;2022-12-04T09:23:50;4.30;99.90
2389;DHT22;1205;47.984;7.668;2022-12-04T09:26:20;4.40;99.90
2389;DHT22;1205;47.984;7.668;2022-12-04T09:28:47;4.50;99.90
2389;DHT22;1205;47.984;7.668;2022-12-04T09:31:13;4.50;99.90
2389;DHT22;1205;47.984;7.668;2022-12-04T09:33:39;5.80;99.90
2389;DHT22;1205;47.984;7.668;2022-12-04T09:36:05;6.50;99.90
2389;DHT22;1205;47.984;7.668;2022-12-04T09:38:31;6.90;99.90
2389;DHT22;1205;47.984;7.668;2022-12-04T09:41:59;7.60;99.90
2389;DHT22;1205;47.984;7.668;2022-12-04T09:47:01;8.30;99.90
2389;DHT22;1205;47.984;7.668;2022-12-04T09:49:46;7.10;99.90
2389;DHT22;1205;47.984;7.668;2022-12-04T09:55:26;5.90;99.90
2389;DHT22;1205;47.984;7.668;2022-12-04T09:57:55;5.60;99.90
2389;DHT22;1205;47.984;7.668;2022-12-04T10:00:21;5.50;99.90
2389;DHT22;1205;47.984;7.668;2022-12-04T10:03:02;5.40;99.90
2389;DHT22;1205;47.984;7.668;2022-12-04T10:08:27;5.20;99.90
2389;DHT22;1205;47.984;7.668;2022-12-04T10:10:56;4.90;99.90
2389;DHT22;1205;47.984;7.668;2022-12-04T10:13:41;4.90;99.90
2389;DHT22;1205;47.984;7.668;2022-12-04T10:16:16;4.80;99.90
2389;DHT22;1205;47.984;7.668;2022-12-04T10:18:49;4.80;99.90
2389;DHT22;1205;47.984;7.668;2022-12-04T10:24:15;4.80;99.90
2389;DHT22;1205;47.984;7.668;2022-12-04T10:26:47;4.70;99.90
2389;DHT22;1205;47.984;7.668;2022-12-04T10:29:26;4.70;99.90
2389;DHT22;1205;47.984;7.668;2022-12-04T10:32:05;4.50;99.90
2389;DHT22;1205;47.984;7.668;2022-12-04T10:34:38;4.50;99.90
2389;DHT22;1205;47.984;7.668;2022-12-04T10:37:11;4.50;99.90
2389;DHT22;1205;47.984;7.668;2022-12-04T10:39:46;4.50;99.90
2389;DHT22;1205;47.984;7.668;2022-12-04T10:42:34;4.50;99.90
2389;DHT22;1205;47.984;7.668;2022-12-04T10:45:04;4.50;99.90
2389;DHT22;1205;47.984;7.668;2022-12-04T10:47:31;4.60;99.90
2389;DHT22;1205;47.984;7.668;2022-12-04T10:50:00;4.70;99.90
2389;DHT22;1205;47.984;7.668;2022-12-04T10:52:27;4.70;99.90
2389;DHT22;1205;47.984;7.668;2022-12-04T10:54:58;4.70;99.90
2389;DHT22;1205;47.984;7.668;2022-12-04T10:57:42;4.80;99.90
2389;DHT22;1205;47.984;7.668;2022-12-04T11:00:28;4.80;99.90
2389;DHT22;1205;47.984;7.668;2022-12-04T11:02:58;4.80;99.90
2389;DHT22;1205;47.984;7.668;2022-12-04T11:05:33;4.80;99.90
2389;DHT22;1205;47.984;7.668;2022-12-04T11:08:02;5.10;99.90
2389;DHT22;1205;47.984;7.668;2022-12-04T11:10:38;5.10;99.90
2389;DHT22;1205;47.984;7.668;2022-12-04T11:13:15;5.00;99.90
2389;DHT22;1205;47.984;7.668;2022-12-04T11:15:46;4.90;99.90
2389;DHT22;1205;47.984;7.668;2022-12-04T11:18:32;5.00;99.90
2389;DHT22;1205;47.984;7.668;2022-12-04T11:21:02;4.70;99.90
2389;DHT22;1205;47.984;7.668;2022-12-04T11:23:31;4.70;99.90
2389;DHT22;1205;47.984;7.668;2022-12-04T11:25:58;4.80;99.90
2389;DHT22;1205;47.984;7.668;2022-12-04T11:28:28;4.90;99.90
2389;DHT22;1205;47.984;7.668;2022-12-04T11:30:57;4.90;99.90
2389;DHT22;1205;47.984;7.668;2022-12-04T11:33:33;4.90;99.90
2389;DHT22;1205;47.984;7.668;2022-12-04T11:36:02;4.80;99.90
2389;DHT22;1205;47.984;7.668;2022-12-04T11:38:33;4.80;99.90
2389;DHT22;1205;47.984;7.668;2022-12-04T11:41:01;4.70;99.90
2389;DHT22;1205;47.984;7.668;2022-12-04T11:43:29;4.70;99.90
2389;DHT22;1205;47.984;7.668;2022-12-04T11:46:00;4.70;99.90
2389;DHT22;1205;47.984;7.668;2022-12-04T11:48:31;4.70;99.90
2389;DHT22;1205;47.984;7.668;2022-12-04T11:54:06;4.70;99.90
2389;DHT22;1205;47.984;7.668;2022-12-04T11:56:40;4.70;99.90
2389;DHT22;1205;47.984;7.668;2022-12-04T12:10:49;4.90;99.90
2389;DHT22;1205;47.984;7.668;2022-12-04T12:16:11;4.80;99.90
2389;DHT22;1205;47.984;7.668;2022-12-04T12:18:56;4.90;99.90
2389;DHT22;1205;47.984;7.668;2022-12-04T12:21:32;5.00;99.90
2389;DHT22;1205;47.984;7.668;2022-12-04T12:24:18;5.00;99.90
2389;DHT22;1205;47.984;7.668;2022-12-04T12:29:57;5.70;99.90
2389;DHT22;1205;47.984;7.668;2022-12-04T12:32:58;5.80;99.90
2389;DHT22;1205;47.984;7.668;2022-12-04T12:35:43;5.60;99.90
2389;DHT22;1205;47.984;7.668;2022-12-04T12:38:17;5.40;99.90
2389;DHT22;1205;47.984;7.668;2022-12-04T12:40:53;5.30;99.90
2389;DHT22;1205;47.984;7.668;2022-12-04T12:43:30;5.20;99.90
2389;DHT22;1205;47.984;7.668;2022-12-04T12:53:48;5.10;99.90
2389;DHT22;1205;47.984;7.668;2022-12-04T12:56:16;5.20;99.90
2389;DHT22;1205;47.984;7.668;2022-12-04T12:58:47;5.10;99.90
2389;DHT22;1205;47.984;7.668;2022-12-04T13:01:48;5.00;99.90
2389;DHT22;1205;47.984;7.668;2022-12-04T13:04:18;5.00;99.90
2389;DHT22;1205;47.984;7.668;2022-12-04T13:09:32;5.00;99.90
2389;DHT22;1205;47.984;7.668;2022-12-04T13:12:02;5.00;99.90
2389;DHT22;1205;47.984;7.668;2022-12-04T13:14:30;4.90;99.90
2389;DHT22;1205;47.984;7.668;2022-12-04T13:17:13;4.80;99.90
2389;DHT22;1205;47.984;7.668;2022-12-04T13:19:45;4.80;99.90
2389;DHT22;1205;47.984;7.668;2022-12-04T13:25:26;4.80;99.90
2389;DHT22;1205;47.984;7.668;2022-12-04T13:28:06;4.80;99.90
2389;DHT22;1205;47.984;7.668;2022-12-04T13:33:30;4.50;99.90
2389;DHT22;1205;47.984;7.668;2022-12-04T13:36:26;4.50;99.90
2389;DHT22;1205;47.984;7.668;2022-12-04T13:42:02;4.40;99.90
2389;DHT22;1205;47.984;7.668;2022-12-04T13:44:29;4.40;99.90
2389;DHT22;1205;47.984;7.668;2022-12-04T13:47:03;4.40;99.90
2389;DHT22;1205;47.984;7.668;2022-12-04T13:49:30;4.20;99.90
2389;DHT22;1205;47.984;7.668;2022-12-04T13:51:57;4.30;99.90
2389;DHT22;1205;47.984;7.668;2022-12-04T13:54:34;4.30;99.90
2389;DHT22;1205;47.984;7.668;2022-12-04T13:57:21;4.30;99.90
2389;DHT22;1205;47.984;7.668;2022-12-04T13:59:47;4.30;99.90
2389;DHT22;1205;47.984;7.668;2022-12-04T14:02:26;4.20;99.90
2389;DHT22;1205;47.984;7.668;2022-12-04T14:04:59;4.20;99.90
2389;DHT22;1205;47.984;7.668;2022-12-04T14:07:33;4.20;99.90
2389;DHT22;1205;47.984;7.668;2022-12-04T14:10:23;4.20;99.90
2389;DHT22;1205;47.984;7.668;2022-12-04T14:13:23;4.30;99.90
2389;DHT22;1205;47.984;7.668;2022-12-04T14:16:05;4.30;99.90
2389;DHT22;1205;47.984;7.668;2022-12-04T14:18:32;4.20;99.90
2389;DHT22;1205;47.984;7.668;2022-12-04T14:21:00;4.30;99.90
2389;DHT22;1205;47.984;7.668;2022-12-04T14:23:52;4.20;99.90
2389;DHT22;1205;47.984;7.668;2022-12-04T14:26:28;4.20;99.90
2389;DHT22;1205;47.984;7.668;2022-12-04T14:31:58;4.40;99.90
2389;DHT22;1205;47.984;7.668;2022-12-04T14:34:29;4.40;99.90
2389;DHT22;1205;47.984;7.668;2022-12-04T14:36:56;4.50;99.90
2389;DHT22;1205;47.984;7.668;2022-12-04T14:39:35;4.40;99.90
2389;DHT22;1205;47.984;7.668;2022-12-04T14:42:30;4.40;99.90
2389;DHT22;1205;47.984;7.668;2022-12-04T14:44:58;4.30;99.90
2389;DHT22;1205;47.984;7.668;2022-12-04T14:52:35;4.40;99.90
2389;DHT22;1205;47.984;7.668;2022-12-04T14:55:17;4.40;99.90
2389;DHT22;1205;47.984;7.668;2022-12-04T14:57:52;4.40;99.90
2389;DHT22;1205;47.984;7.668;2022-12-04T15:00:20;4.40;99.90
2389;DHT22;1205;47.984;7.668;2022-12-04T15:02:49;4.40;99.90
2389;DHT22;1205;47.984;7.668;2022-12-04T15:05:27;4.30;99.90
2389;DHT22;1205;47.984;7.668;2022-12-04T15:07:58;4.40;99.90
2389;DHT22;1205;47.984;7.668;2022-12-04T15:10:31;4.40;99.90
2389;DHT22;1205;47.984;7.668;2022-12-04T15:13:32;4.50;99.90
2389;DHT22;1205;47.984;7.668;2022-12-04T15:16:19;4.50;99.90
2389;DHT22;1205;47.984;7.668;2022-12-04T15:18:56;4.60;99.90
2389;DHT22;1205;47.984;7.668;2022-12-04T15:21:23;4.50;99.90
2389;DHT22;1205;47.984;7.668;2022-12-04T15:23:51;4.50;99.90
2389;DHT22;1205;47.984;7.668;2022-12-04T15:26:19;4.50;99.90
2389;DHT22;1205;47.984;7.668;2022-12-04T15:29:00;4.30;99.90
2389;DHT22;1205;47.984;7.668;2022-12-04T15:31:40;4.30;99.90
2389;DHT22;1205;47.984;7.668;2022-12-04T15:34:14;4.30;99.90
2389;DHT22;1205;47.984;7.668;2022-12-04T15:36:50;4.20;99.90
2389;DHT22;1205;47.984;7.668;2022-12-04T15:39:21;4.30;99.90
2389;DHT22;1205;47.984;7.668;2022-12-04T15:41:48;4.30;99.90
2389;DHT22;1205;47.984;7.668;2022-12-04T15:44:31;4.30;99.90
2389;DHT22;1205;47.984;7.668;2022-12-04T15:47:00;4.20;99.90
2389;DHT22;1205;47.984;7.668;2022-12-04T15:49:30;4.20;99.90
2389;DHT22;1205;47.984;7.668;2022-12-04T15:54:34;4.30;99.90
2389;DHT22;1205;47.984;7.668;2022-12-04T15:57:39;4.20;99.90
2389;DHT22;1205;47.984;7.668;2022-12-04T15:59:57;4.30;99.90
2389;DHT22;1205;47.984;7.668;2022-12-04T16:02:40;4.30;99.90
2389;DHT22;1205;47.984;7.668;2022-12-04T16:10:26;4.30;99.90
2389;DHT22;1205;47.984;7.668;2022-12-04T16:12:56;4.30;99.90
2389;DHT22;1205;47.984;7.668;2022-12-04T16:15:23;4.30;99.90
2389;DHT22;1205;47.984;7.668;2022-12-04T16:17:50;4.30;99.90
2389;DHT22;1205;47.984;7.668;2022-12-04T16:20:15;4.40;99.90
2389;DHT22;1205;47.984;7.668;2022-12-04T16:22:41;4.30;99.90
2389;DHT22;1205;47.984;7.668;2022-12-04T16:25:10;4.40;99.90
2389;DHT22;1205;47.984;7.668;2022-12-04T16:27:36;4.30;99.90
2389;DHT22;1205;47.984;7.668;2022-12-04T16:30:03;4.30;99.90
2389;DHT22;1205;47.984;7.668;2022-12-04T16:32:31;4.30;99.90
2389;DHT22;1205;47.984;7.668;2022-12-04T16:34:56;4.40;99.90
2389;DHT22;1205;47.984;7.668;2022-12-04T16:37:23;4.30;99.90
2389;DHT22;1205;47.984;7.668;2022-12-04T16:39:49;4.40;99.90
2389;DHT22;1205;47.984;7.668;2022-12-04T16:42:23;4.40;99.90
2389;DHT22;1205;47.984;7.668;2022-12-04T16:44:49;4.40;99.90
2389;DHT22;1205;47.984;7.668;2022-12-04T16:47:15;4.40;99.90
2389;DHT22;1205;47.984;7.668;2022-12-04T16:49:42;4.30;99.90
2389;DHT22;1205;47.984;7.668;2022-12-04T16:52:10;4.30;99.90
2389;DHT22;1205;47.984;7.668;2022-12-04T16:54:36;4.40;99.90
2389;DHT22;1205;47.984;7.668;2022-12-04T16:57:02;4.40;99.90
2389;DHT22;1205;47.984;7.668;2022-12-04T16:59:27;4.40;99.90
2389;DHT22;1205;47.984;7.668;2022-12-04T17:01:53;4.40;99.90
2389;DHT22;1205;47.984;7.668;2022-12-04T17:04:19;4.50;99.90
2389;DHT22;1205;47.984;7.668;2022-12-04T17:06:45;4.50;99.90
2389;DHT22;1205;47.984;7.668;2022-12-04T17:09:11;4.50;99.90
2389;DHT22;1205;47.984;7.668;2022-12-04T17:11:37;4.50;99.90
2389;DHT22;1205;47.984;7.668;2022-12-04T17:14:03;4.50;99.90
2389;DHT22;1205;47.984;7.668;2022-12-04T17:16:40;4.50;99.90
2389;DHT22;1205;47.984;7.668;2022-12-04T17:19:07;4.40;99.90
2389;DHT22;1205;47.984;7.668;2022-12-04T17:21:33;4.50;99.90
2389;DHT22;1205;47.984;7.668;2022-12-04T17:23:59;4.40;99.90
2389;DHT22;1205;47.984;7.668;2022-12-04T17:26:25;4.50;99.90
2389;DHT22;1205;47.984;7.668;2022-12-04T17:28:51;4.50;99.90
2389;DHT22;1205;47.984;7.668;2022-12-04T17:31:20;4.50;99.90
2389;DHT22;1205;47.984;7.668;2022-12-04T17:33:46;4.60;99.90
2389;DHT22;1205;47.984;7.668;2022-12-04T17:36:17;4.50;99.90
2389;DHT22;1205;47.984;7.668;2022-12-04T17:38:43;4.60;99.90
2389;DHT22;1205;47.984;7.668;2022-12-04T17:41:10;4.60;99.90
2389;DHT22;1205;47.984;7.668;2022-12-04T17:43:40;4.60;99.90
2389;DHT22;1205;47.984;7.668;2022-12-04T17:46:14;4.60;99.90
2389;DHT22;1205;47.984;7.668;2022-12-04T17:48:41;4.60;99.90
2389;DHT22;1205;47.984;7.668;2022-12-04T17:51:09;4.60;99.90
2389;DHT22;1205;47.984;7.668;2022-12-04T17:53:35;4.60;99.90
2389;DHT22;1205;47.984;7.668;2022-12-04T17:56:07;4.60;99.90
2389;DHT22;1205;47.984;7.668;2022-12-04T17:58:34;4.60;99.90
2389;DHT22;1205;47.984;7.668;2022-12-04T18:01:01;4.70;99.90
2389;DHT22;1205;47.984;7.668;2022-12-04T18:03:27;4.60;99.90
2389;DHT22;1205;47.984;7.668;2022-12-04T18:05:53;4.60;99.90
2389;DHT22;1205;47.984;7.668;2022-12-04T18:08:18;4.60;99.90
2389;DHT22;1205;47.984;7.668;2022-12-04T18:10:44;4.60;99.90
2389;DHT22;1205;47.984;7.668;2022-12-04T18:13:09;4.70;99.90
2389;DHT22;1205;47.984;7.668;2022-12-04T18:15:35;4.70;99.90
2389;DHT22;1205;47.984;7.668;2022-12-04T18:18:00;4.70;99.90
2389;DHT22;1205;47.984;7.668;2022-12-04T18:20:26;4.70;99.90